Time;durP1;ratioP1;P1;durP2;ratioP2;P2;SDS_P1;SDS_P2;PMS_P1;PMS_P2;Temp;Humidity;BMP_temperature;BMP_pressure;BME280_temperature;BME280_humidity;BME280_pressure;Samples;Min_cycle;Max_cycle;Signal;HPM_P1;HPM_P2
2022/01/29 00:02:56;;;;;;;2.22;1.10;;;19.30;47.60;;;;;;6172204;28;20022;-75
2022/01/29 00:05:58;;;;;;;2.83;1.25;;;19.30;47.20;;;;;;6172085;28;20082;-75
2022/01/29 00:08:58;;;;;;;3.60;1.20;;;19.20;47.30;;;;;;6172115;28;20109;-76
2022/01/29 00:11:59;;;;;;;3.13;1.40;;;19.30;47.60;;;;;;6172214;28;20029;-76
2022/01/29 00:14:59;;;;;;;2.08;1.23;;;19.20;47.50;;;;;;6171704;28;20031;-76
2022/01/29 00:18:00;;;;;;;3.22;1.30;;;19.20;47.50;;;;;;6171985;28;20401;-76
2022/01/29 00:21:01;;;;;;;2.08;1.00;;;19.20;47.50;;;;;;6171733;28;20739;-77
2022/01/29 00:24:02;;;;;;;4.03;1.40;;;19.20;47.30;;;;;;6171590;28;20505;-76
2022/01/29 00:27:08;;;;;;;3.38;1.50;;;19.20;47.10;;;;;;6171974;28;20094;-76
2022/01/29 00:30:14;;;;;;;2.85;1.40;;;19.20;47.50;;;;;;6171990;28;20039;-76
2022/01/29 00:33:15;;;;;;;2.75;1.30;;;19.20;47.50;;;;;;6171246;28;20022;-77
2022/01/29 00:36:15;;;;;;;3.40;1.45;;;19.20;47.50;;;;;;6171525;28;20030;-77
2022/01/29 00:39:16;;;;;;;2.88;1.23;;;19.20;47.50;;;;;;6171515;28;20513;-76
2022/01/29 00:42:16;;;;;;;2.78;1.33;;;19.20;47.50;;;;;;6155517;28;20023;-77
2022/01/29 00:45:17;;;;;;;2.05;1.10;;;19.20;47.50;;;;;;6147498;29;20032;-76
2022/01/29 00:48:17;;;;;;;3.17;1.35;;;19.20;47.50;;;;;;6147492;29;20114;-77
2022/01/29 00:51:18;;;;;;;4.13;1.40;;;19.20;47.40;;;;;;6147636;29;20082;-76
2022/01/29 00:54:19;;;;;;;3.67;1.40;;;19.20;47.40;;;;;;6147127;29;20050;-76
2022/01/29 00:57:19;;;;;;;2.53;1.30;;;19.20;47.30;;;;;;6147351;29;20434;-76
2022/01/29 01:00:20;;;;;;;2.08;1.17;;;19.20;47.30;;;;;;6147079;29;20509;-76
2022/01/29 01:03:20;;;;;;;4.00;1.60;;;19.20;47.20;;;;;;6145420;29;20031;-78
2022/01/29 01:06:21;;;;;;;2.42;1.10;;;19.20;47.50;;;;;;6146973;29;20145;-77
2022/01/29 01:09:21;;;;;;;3.05;1.08;;;19.20;47.60;;;;;;6147192;29;20023;-76
2022/01/29 01:12:22;;;;;;;4.30;1.45;;;19.20;47.50;;;;;;6146958;29;20394;-76
2022/01/29 01:15:23;;;;;;;3.30;1.10;;;19.20;47.40;;;;;;6164478;28;20042;-77
2022/01/29 01:18:23;;;;;;;2.80;1.40;;;19.20;47.50;;;;;;6170324;28;20421;-76
2022/01/29 01:21:24;;;;;;;2.35;1.20;;;19.20;47.30;;;;;;6170802;28;20158;-77
2022/01/29 01:24:24;;;;;;;2.72;1.27;;;19.20;47.50;;;;;;6170811;28;20031;-78
2022/01/29 01:27:25;;;;;;;3.63;1.33;;;19.20;47.60;;;;;;6170526;28;20093;-76
2022/01/29 01:30:25;;;;;;;2.42;1.20;;;19.20;47.40;;;;;;6170240;28;20051;-76
2022/01/29 01:33:26;;;;;;;2.75;1.20;;;19.20;47.50;;;;;;6157391;28;20031;-76
2022/01/29 01:36:27;;;;;;;2.50;1.20;;;19.20;47.50;;;;;;6146709;28;20035;-76
2022/01/29 01:39:32;;;;;;;2.80;1.08;;;19.20;47.60;;;;;;6146829;28;20386;-76
2022/01/29 01:42:32;;;;;;;3.92;1.30;;;19.20;47.60;;;;;;6146692;28;20034;-75
2022/01/29 01:45:33;;;;;;;3.35;1.15;;;19.20;47.50;;;;;;6147081;29;20055;-75
2022/01/29 01:48:33;;;;;;;4.38;1.38;;;19.20;47.60;;;;;;6146691;29;20098;-74
2022/01/29 01:51:34;;;;;;;2.50;1.10;;;19.20;47.60;;;;;;6158007;28;20029;-75
2022/01/29 01:54:35;;;;;;;2.28;1.02;;;19.20;47.60;;;;;;6169991;28;20573;-75
2022/01/29 01:57:35;;;;;;;3.33;1.30;;;19.20;47.50;;;;;;6170509;28;20085;-75
2022/01/29 02:00:36;;;;;;;2.72;1.15;;;19.20;47.30;;;;;;6170512;28;20033;-77
2022/01/29 02:03:36;;;;;;;2.67;1.00;;;19.20;47.40;;;;;;6170239;28;20533;-77
2022/01/29 02:06:37;;;;;;;2.33;1.05;;;19.20;47.60;;;;;;6170345;28;20026;-76
2022/01/29 02:09:39;;;;;;;2.60;1.23;;;19.20;47.40;;;;;;6169817;28;20026;-77
2022/01/29 02:12:50;;;;;;;2.00;1.30;;;19.20;47.60;;;;;;6169835;28;20035;-76
2022/01/29 02:15:51;;;;;;;2.40;1.08;;;19.20;47.60;;;;;;6170233;28;20023;-76
2022/01/29 02:18:51;;;;;;;4.25;1.70;;;19.20;47.40;;;;;;6170252;28;20022;-76
2022/01/29 02:21:57;;;;;;;3.30;1.20;;;19.20;47.50;;;;;;6170371;28;20034;-77
2022/01/29 02:24:57;;;;;;;1.73;1.08;;;19.20;47.60;;;;;;6170215;28;20062;-76
2022/01/29 02:28:00;;;;;;;3.13;1.10;;;19.20;47.50;;;;;;6169899;28;20057;-75
2022/01/29 02:31:03;;;;;;;4.40;1.27;;;19.20;47.60;;;;;;6171833;28;20037;-76
2022/01/29 02:34:04;;;;;;;2.70;1.30;;;19.20;47.60;;;;;;6155914;28;20390;-76
2022/01/29 02:37:05;;;;;;;2.85;1.23;;;19.20;47.50;;;;;;6150432;28;20031;-76
2022/01/29 02:40:06;;;;;;;4.50;1.20;;;19.20;47.60;;;;;;6148903;28;20030;-74
2022/01/29 02:43:23;;;;;;;1.70;0.93;;;19.20;47.70;;;;;;6150064;28;20027;-75
2022/01/29 02:46:42;;;;;;;2.72;1.08;;;19.20;47.60;;;;;;6149897;28;20050;-76
2022/01/29 02:49:43;;;;;;;2.17;1.20;;;19.20;47.30;;;;;;6150624;29;20095;-76
2022/01/29 02:52:43;;;;;;;2.30;1.20;;;19.20;47.60;;;;;;6149913;29;20385;-76
2022/01/29 02:55:44;;;;;;;2.28;1.05;;;19.20;47.70;;;;;;6149765;29;20498;-76
2022/01/29 02:58:46;;;;;;;2.05;1.10;;;19.20;47.60;;;;;;6149890;29;20029;-76
2022/01/29 03:01:46;;;;;;;2.60;1.33;;;19.20;47.60;;;;;;6149685;29;20055;-76
2022/01/29 03:04:47;;;;;;;2.10;1.08;;;19.20;47.60;;;;;;6149829;29;20041;-76
2022/01/29 03:07:48;;;;;;;3.83;1.15;;;19.20;47.60;;;;;;6149705;29;20070;-76
2022/01/29 03:10:49;;;;;;;3.92;1.52;;;19.20;47.60;;;;;;6149483;29;20495;-76
2022/01/29 03:13:50;;;;;;;2.80;1.10;;;19.20;47.70;;;;;;6149506;29;20035;-76
2022/01/29 03:16:50;;;;;;;2.65;1.20;;;19.20;47.70;;;;;;6149240;29;20114;-76
2022/01/29 03:19:52;;;;;;;1.67;0.98;;;19.20;47.70;;;;;;6148897;29;20020;-75
2022/01/29 03:22:53;;;;;;;3.60;1.17;;;19.20;47.70;;;;;;6147259;29;20444;-76
2022/01/29 03:25:53;;;;;;;4.70;1.20;;;19.20;47.80;;;;;;6163271;28;20402;-76
2022/01/29 03:28:54;;;;;;;2.63;1.23;;;19.20;47.70;;;;;;6173258;28;20449;-76
2022/01/29 03:31:54;;;;;;;2.35;0.93;;;19.20;47.70;;;;;;6171525;28;20039;-76
2022/01/29 03:34:55;;;;;;;3.40;1.00;;;19.20;47.70;;;;;;6148917;28;20091;-76
2022/01/29 03:37:55;;;;;;;3.20;1.20;;;19.20;47.70;;;;;;6149158;28;20590;-76
2022/01/29 03:40:58;;;;;;;2.80;1.10;;;19.20;47.70;;;;;;6148319;28;20296;-76
2022/01/29 03:44:03;;;;;;;2.20;0.90;;;19.20;47.70;;;;;;6148569;29;20039;-76
2022/01/29 03:47:04;;;;;;;1.73;0.90;;;19.20;47.70;;;;;;6148672;29;20483;-76
2022/01/29 03:50:05;;;;;;;2.95;1.10;;;19.20;47.70;;;;;;6149136;29;20030;-76
2022/01/29 03:53:05;;;;;;;1.92;1.00;;;19.20;47.70;;;;;;6148462;29;20055;-76
2022/01/29 03:56:06;;;;;;;3.53;1.17;;;19.20;47.70;;;;;;6148625;29;20355;-76
2022/01/29 04:03:03;;;;;;;4.72;1.40;;;19.10;47.60;;;;;;6148319;29;20232;-76
2022/01/29 04:06:04;;;;;;;3.53;1.40;;;19.20;47.70;;;;;;6156558;28;20434;-76
2022/01/29 04:09:09;;;;;;;2.13;1.02;;;19.10;47.60;;;;;;6172506;28;20026;-77
2022/01/29 04:12:10;;;;;;;3.60;1.25;;;19.10;47.70;;;;;;6172165;28;20054;-77
2022/01/29 04:15:10;;;;;;;2.78;1.40;;;19.10;47.70;;;;;;6171718;28;20066;-76
2022/01/29 04:18:11;;;;;;;2.50;1.00;;;19.10;47.60;;;;;;6171849;28;20073;-75
2022/01/29 04:21:11;;;;;;;3.63;1.30;;;19.10;47.70;;;;;;6172011;28;20031;-76
2022/01/29 04:24:12;;;;;;;1.90;0.90;;;19.10;47.60;;;;;;6172132;28;20033;-76
2022/01/29 04:27:19;;;;;;;1.98;1.10;;;19.10;47.70;;;;;;6172102;28;20081;-76
2022/01/29 04:30:29;;;;;;;2.50;1.15;;;19.10;47.70;;;;;;6172120;28;20023;-76
2022/01/29 04:33:29;;;;;;;2.10;1.10;;;19.10;47.70;;;;;;6157640;28;20055;-76
2022/01/29 04:36:30;;;;;;;2.75;1.20;;;19.10;47.70;;;;;;6147468;28;20035;-76
2022/01/29 04:39:30;;;;;;;2.15;1.00;;;19.10;47.70;;;;;;6147766;28;20093;-76
2022/01/29 04:42:31;;;;;;;2.47;1.00;;;19.10;47.70;;;;;;6147925;28;20031;-75
2022/01/29 04:45:32;;;;;;;2.83;1.10;;;19.10;47.70;;;;;;6147836;29;20078;-75
2022/01/29 04:48:33;;;;;;;3.03;0.95;;;19.10;47.70;;;;;;6147313;29;20107;-76
2022/01/29 04:51:33;;;;;;;3.08;1.23;;;19.10;47.70;;;;;;6156408;28;20035;-75
2022/01/29 04:54:34;;;;;;;2.05;0.90;;;19.10;47.70;;;;;;6170307;28;20094;-76
2022/01/29 04:57:37;;;;;;;2.90;1.10;;;19.10;47.60;;;;;;6167552;28;20065;-76
2022/01/29 05:00:38;;;;;;;2.53;1.08;;;19.10;47.70;;;;;;6171378;28;20027;-77
2022/01/29 05:03:38;;;;;;;3.33;1.02;;;19.10;47.70;;;;;;6171666;28;20038;-77
2022/01/29 05:06:40;;;;;;;2.35;1.17;;;19.10;47.70;;;;;;6170962;28;20359;-76
2022/01/29 05:09:40;;;;;;;3.88;0.85;;;19.10;47.70;;;;;;6171455;28;20472;-77
2022/01/29 05:15:59;;;;;;;3.35;1.35;;;19.20;47.60;;;;;;6171152;28;20042;-76
2022/01/29 05:28:57;;;;;;;2.92;1.00;;;19.20;47.70;;;;;;6170702;28;20038;-76
2022/01/29 05:32:06;;;;;;;2.20;0.90;;;19.20;47.70;;;;;;6183881;28;20591;-76
2022/01/29 05:35:07;;;;;;;2.67;0.95;;;19.20;47.80;;;;;;6147307;28;20082;-76
2022/01/29 05:38:07;;;;;;;2.53;1.02;;;19.20;47.80;;;;;;6146526;29;20490;-76
2022/01/29 05:41:08;;;;;;;2.70;0.93;;;19.20;47.80;;;;;;6146677;28;20082;-77
2022/01/29 05:44:08;;;;;;;2.47;1.13;;;19.20;47.80;;;;;;6149551;28;20023;-77
2022/01/29 05:47:09;;;;;;;1.75;1.00;;;19.20;47.70;;;;;;6170344;28;20107;-77
2022/01/29 05:50:10;;;;;;;2.17;0.93;;;19.20;47.50;;;;;;6170323;28;20041;-76
2022/01/29 05:53:11;;;;;;;2.22;1.10;;;19.20;47.80;;;;;;6170408;28;20051;-77
2022/01/29 05:56:12;;;;;;;2.88;0.90;;;19.20;47.90;;;;;;6169853;28;20153;-77
2022/01/29 05:59:13;;;;;;;2.67;1.30;;;19.20;47.60;;;;;;6170081;28;20027;-77
2022/01/29 06:02:13;;;;;;;2.28;1.02;;;19.20;47.60;;;;;;6158247;28;20035;-76
2022/01/29 06:05:14;;;;;;;2.13;0.82;;;19.20;47.80;;;;;;6148685;28;20078;-76
2022/01/29 06:08:14;;;;;;;2.13;0.88;;;19.20;47.80;;;;;;6151081;28;20102;-76
2022/01/29 06:11:16;;;;;;;1.85;0.80;;;19.20;47.90;;;;;;6151046;28;20027;-76
2022/01/29 06:14:17;;;;;;;1.05;0.63;;;19.20;47.80;;;;;;6151378;28;20038;-76
2022/01/29 06:17:17;;;;;;;3.17;1.27;;;19.20;47.70;;;;;;6150817;28;20414;-77
2022/01/29 06:20:18;;;;;;;2.95;1.15;;;19.20;47.80;;;;;;6151224;28;20028;-76
2022/01/29 06:23:29;;;;;;;2.45;0.90;;;19.20;47.80;;;;;;6150660;28;20027;-76
2022/01/29 06:26:30;;;;;;;2.35;1.00;;;19.20;47.80;;;;;;6154730;28;20373;-76
2022/01/29 06:29:30;;;;;;;1.73;0.77;;;19.20;47.80;;;;;;6174614;28;20058;-77
2022/01/29 06:32:31;;;;;;;2.30;0.90;;;19.20;47.80;;;;;;6168386;28;20486;-77
2022/01/29 06:35:31;;;;;;;2.63;0.73;;;19.20;47.70;;;;;;6150543;28;20099;-76
2022/01/29 06:38:32;;;;;;;2.10;0.90;;;19.20;47.80;;;;;;6150581;28;20035;-77
2022/01/29 06:41:33;;;;;;;1.63;0.98;;;19.20;47.80;;;;;;6150250;28;20039;-76
2022/01/29 06:44:33;;;;;;;2.03;0.95;;;19.20;47.70;;;;;;6150773;29;20089;-76
2022/01/29 06:47:34;;;;;;;2.45;1.05;;;19.20;47.80;;;;;;6150508;29;20390;-76
2022/01/29 06:50:35;;;;;;;3.97;1.48;;;19.20;47.70;;;;;;6150239;29;20036;-77
2022/01/29 06:53:36;;;;;;;2.55;1.35;;;19.20;47.60;;;;;;6150314;29;20067;-76
2022/01/29 06:56:36;;;;;;;3.88;1.20;;;19.20;47.50;;;;;;6149732;29;20102;-76
2022/01/29 06:59:37;;;;;;;2.60;1.27;;;19.20;47.70;;;;;;6150065;29;20033;-76
2022/01/29 07:02:37;;;;;;;2.28;1.10;;;19.20;47.70;;;;;;6149926;29;20031;-76
2022/01/29 07:05:39;;;;;;;2.13;1.00;;;19.20;47.30;;;;;;6149739;29;20035;-76
2022/01/29 07:08:39;;;;;;;1.65;0.90;;;19.20;47.80;;;;;;6150611;28;20034;-76
2022/01/29 07:11:44;;;;;;;1.73;0.88;;;19.20;47.80;;;;;;6149137;29;20035;-76
2022/01/29 07:14:49;;;;;;;2.53;1.02;;;19.20;47.60;;;;;;6149667;29;20038;-76
2022/01/29 07:17:49;;;;;;;2.33;0.90;;;19.20;47.70;;;;;;6147791;28;20046;-76
2022/01/29 07:20:50;;;;;;;2.58;1.00;;;19.20;47.60;;;;;;6149622;29;20510;-78
2022/01/29 07:23:50;;;;;;;1.77;0.80;;;19.20;47.70;;;;;;6149636;29;20371;-76
2022/01/29 07:26:51;;;;;;;4.32;1.10;;;19.20;47.80;;;;;;6155498;28;20027;-76
2022/01/29 07:29:51;;;;;;;1.65;0.85;;;19.20;47.70;;;;;;6174227;28;20109;-76
2022/01/29 07:32:52;;;;;;;1.70;0.88;;;19.20;47.70;;;;;;6164068;28;20034;-77
2022/01/29 07:35:52;;;;;;;1.90;0.95;;;19.20;47.80;;;;;;6148846;28;20451;-75
2022/01/29 07:38:53;;;;;;;1.38;0.68;;;19.20;47.70;;;;;;6148799;28;20031;-76
2022/01/29 07:41:54;;;;;;;2.10;1.00;;;19.20;47.70;;;;;;6148779;28;20089;-76
2022/01/29 07:44:55;;;;;;;1.83;1.00;;;19.20;47.80;;;;;;6148697;29;20035;-76
2022/01/29 07:47:55;;;;;;;1.65;0.88;;;19.20;47.70;;;;;;6149180;29;20039;-76
2022/01/29 07:50:56;;;;;;;1.40;0.80;;;19.20;47.60;;;;;;6150160;28;20035;-76
2022/01/29 07:53:56;;;;;;;1.25;0.70;;;19.20;47.70;;;;;;6148556;29;20582;-76
2022/01/29 07:56:57;;;;;;;1.60;0.90;;;19.20;47.70;;;;;;6148280;29;20035;-77
2022/01/29 07:59:57;;;;;;;1.75;0.98;;;19.20;47.80;;;;;;6148822;29;20062;-76
2022/01/29 08:02:58;;;;;;;1.55;0.90;;;19.20;47.70;;;;;;6148170;29;20398;-76
2022/01/29 08:05:58;;;;;;;2.70;1.05;;;19.20;47.80;;;;;;6148434;29;20339;-75
2022/01/29 08:08:59;;;;;;;2.25;0.98;;;19.20;47.80;;;;;;6146617;29;20028;-76
2022/01/29 08:12:00;;;;;;;1.50;0.90;;;19.20;47.80;;;;;;6148676;29;20077;-76
2022/01/29 08:15:01;;;;;;;1.38;0.80;;;19.20;47.80;;;;;;6147997;29;20574;-76
2022/01/29 08:18:02;;;;;;;1.70;0.90;;;19.20;47.60;;;;;;6148462;29;20406;-76
2022/01/29 08:21:03;;;;;;;1.98;0.70;;;19.20;47.60;;;;;;6148373;29;20051;-76
2022/01/29 08:24:07;;;;;;;1.40;0.85;;;19.20;47.80;;;;;;6147718;29;20046;-79
2022/01/29 08:27:08;;;;;;;1.07;0.77;;;19.20;47.80;;;;;;6156107;28;20089;-76
2022/01/29 08:30:09;;;;;;;1.65;1.00;;;19.20;47.80;;;;;;6171978;28;20030;-76
2022/01/29 08:33:16;;;;;;;1.42;0.90;;;19.20;47.80;;;;;;6160516;28;20110;-76
2022/01/29 08:36:16;;;;;;;1.73;1.02;;;19.20;47.80;;;;;;6152311;28;20149;-77
2022/01/29 08:39:17;;;;;;;1.38;0.90;;;19.20;47.70;;;;;;6171676;28;20027;-76
2022/01/29 08:42:17;;;;;;;1.40;0.70;;;19.20;47.80;;;;;;6155656;28;20020;-76
2022/01/29 08:45:18;;;;;;;1.73;0.70;;;19.20;47.60;;;;;;6147371;29;20505;-76
2022/01/29 08:48:20;;;;;;;1.40;0.70;;;19.20;47.80;;;;;;6147776;29;20024;-76
2022/01/29 08:51:20;;;;;;;1.63;1.00;;;19.20;47.80;;;;;;6147411;29;20034;-76
2022/01/29 08:54:21;;;;;;;1.80;0.90;;;19.20;47.80;;;;;;6147216;29;20454;-76
2022/01/29 08:57:23;;;;;;;0.85;0.63;;;19.20;47.70;;;;;;6148063;28;20051;-76
2022/01/29 09:00:24;;;;;;;1.40;0.82;;;19.20;47.60;;;;;;6147559;29;20442;-76
2022/01/29 09:03:25;;;;;;;0.88;0.60;;;19.20;47.70;;;;;;6147028;29;20031;-76
2022/01/29 09:06:25;;;;;;;1.50;0.80;;;19.20;47.80;;;;;;6147246;28;20037;-76
2022/01/29 09:09:26;;;;;;;1.80;0.80;;;19.20;47.80;;;;;;6147761;29;20031;-76
2022/01/29 09:12:27;;;;;;;2.25;1.10;;;19.20;47.70;;;;;;6147049;29;20030;-77
2022/01/29 09:15:27;;;;;;;1.30;0.73;;;19.20;47.80;;;;;;6146757;29;20122;-76
2022/01/29 09:18:28;;;;;;;1.38;0.80;;;19.20;47.60;;;;;;6147157;29;20034;-76
2022/01/29 09:21:29;;;;;;;0.93;0.70;;;19.20;47.70;;;;;;6147107;29;20317;-76
2022/01/29 09:24:29;;;;;;;1.30;0.80;;;19.20;47.70;;;;;;6146862;29;20031;-76
2022/01/29 09:27:30;;;;;;;1.17;0.80;;;19.20;47.80;;;;;;6158420;28;20027;-75
2022/01/29 09:30:31;;;;;;;0.90;0.70;;;19.20;47.80;;;;;;6170811;28;20466;-76
2022/01/29 09:33:32;;;;;;;1.00;0.70;;;19.20;47.80;;;;;;6156737;28;20061;-76
2022/01/29 09:36:32;;;;;;;0.80;0.65;;;19.20;47.80;;;;;;6146385;28;20391;-76
2022/01/29 09:39:33;;;;;;;1.35;0.85;;;19.20;47.80;;;;;;6165884;28;20031;-76
2022/01/29 09:42:35;;;;;;;1.90;0.82;;;19.20;47.80;;;;;;6157231;28;20023;-76
2022/01/29 09:45:37;;;;;;;0.93;0.73;;;19.20;47.80;;;;;;6151787;29;20031;-76
2022/01/29 09:48:38;;;;;;;0.90;0.73;;;19.20;47.90;;;;;;6151563;29;20490;-76
2022/01/29 09:51:39;;;;;;;1.13;0.65;;;19.20;47.90;;;;;;6173953;28;20081;-76
2022/01/29 09:54:40;;;;;;;0.75;0.65;;;19.20;47.90;;;;;;6175718;28;20047;-76
2022/01/29 09:57:41;;;;;;;1.27;0.68;;;19.20;47.90;;;;;;6175184;28;20159;-77
2022/01/29 10:00:41;;;;;;;1.00;0.70;;;19.20;48.00;;;;;;6175230;28;20023;-76
2022/01/29 10:03:57;;;;;;;1.02;0.82;;;19.20;48.00;;;;;;6175636;28;20039;-75
2022/01/29 10:07:14;;;;;;;;;;;19.20;48.00;;;;;;6175881;28;20244;-76
2022/01/29 10:10:19;;;;;;;0.60;0.50;;;19.20;48.00;;;;;;6174965;28;20008;-76
2022/01/29 10:13:30;;;;;;;0.82;0.70;;;19.20;48.00;;;;;;6171786;28;20030;-76
2022/01/29 10:16:33;;;;;;;1.02;0.70;;;19.20;48.00;;;;;;6174758;28;20042;-77
2022/01/29 10:19:34;;;;;;;1.05;0.70;;;19.20;48.10;;;;;;6174921;28;20109;-76
2022/01/29 10:22:35;;;;;;;0.75;0.57;;;19.20;48.10;;;;;;6174822;28;20025;-76
2022/01/29 10:25:41;;;;;;;1.15;0.82;;;19.20;48.80;;;;;;6171134;28;20031;-75
2022/01/29 10:28:41;;;;;;;1.08;0.80;;;19.20;48.10;;;;;;6163018;28;20039;-76
2022/01/29 10:31:44;;;;;;;1.45;0.90;;;19.20;48.00;;;;;;6178704;28;20121;-76
2022/01/29 10:34:54;;;;;;;1.70;0.93;;;19.20;48.70;;;;;;6169789;28;20034;-77
2022/01/29 10:37:58;;;;;;;0.68;0.52;;;19.20;48.10;;;;;;6172695;28;20043;-76
2022/01/29 10:41:23;;;;;;;1.35;0.90;;;19.20;48.10;;;;;;6172754;28;20073;-76
2022/01/29 10:44:24;;;;;;;0.90;0.60;;;19.20;48.10;;;;;;6172450;28;20401;-75
2022/01/29 10:47:25;;;;;;;1.50;0.80;;;19.20;48.10;;;;;;6171748;28;20057;-75
2022/01/29 10:50:27;;;;;;;1.38;0.80;;;19.20;48.10;;;;;;6171446;28;20532;-76
2022/01/29 10:53:28;;;;;;;1.27;0.52;;;19.20;48.20;;;;;;6171128;28;20059;-76
2022/01/29 10:56:28;;;;;;;0.90;0.68;;;19.30;48.20;;;;;;6171858;28;20035;-76
2022/01/29 10:59:34;;;;;;;1.13;0.60;;;19.20;48.10;;;;;;6171766;28;20023;-76
2022/01/29 11:02:35;;;;;;;3.63;0.90;;;19.30;48.20;;;;;;6175738;28;20381;-76
2022/01/29 11:05:36;;;;;;;1.52;0.88;;;19.30;48.20;;;;;;6171423;28;20031;-76
2022/01/29 11:08:39;;;;;;;1.70;0.80;;;19.30;48.20;;;;;;6173201;28;20027;-77
2022/01/29 11:11:41;;;;;;;0.70;0.60;;;19.30;48.20;;;;;;6171725;28;20023;-77
2022/01/29 11:14:42;;;;;;;1.38;0.70;;;19.20;48.20;;;;;;6171600;28;20481;-76
2022/01/29 11:17:43;;;;;;;1.33;0.77;;;19.20;48.20;;;;;;6171160;28;20085;-77
2022/01/29 11:20:44;;;;;;;1.35;0.93;;;19.30;48.40;;;;;;6170811;28;20031;-75
2022/01/29 11:23:45;;;;;;;1.27;0.73;;;19.20;48.20;;;;;;6171081;28;20050;-74
2022/01/29 11:26:46;;;;;;;1.38;0.70;;;19.20;48.20;;;;;;6170908;28;20058;-75
2022/01/29 11:30:11;;;;;;;0.98;0.77;;;19.20;48.20;;;;;;6170514;28;20042;-76
2022/01/29 11:33:12;;;;;;;0.98;0.75;;;19.20;48.20;;;;;;6151426;28;20051;-76
2022/01/29 11:36:13;;;;;;;0.95;0.80;;;19.30;48.30;;;;;;6149871;28;20035;-76
2022/01/29 11:39:25;;;;;;;0.88;0.70;;;19.20;48.20;;;;;;6169850;28;20497;-77
2022/01/29 11:42:29;;;;;;;1.02;0.82;;;19.20;48.20;;;;;;6170911;28;20027;-77
2022/01/29 11:45:46;;;;;;;1.52;0.80;;;19.20;48.20;;;;;;6170492;28;20486;-77
2022/01/29 11:48:52;;;;;;;1.63;0.75;;;19.20;48.20;;;;;;6170550;28;20042;-76
2022/01/29 11:51:53;;;;;;;1.60;1.20;;;19.20;48.20;;;;;;6171263;28;20027;-77
2022/01/29 11:55:06;;;;;;;1.60;1.00;;;19.20;48.20;;;;;;6170242;28;20054;-75
2022/01/29 11:58:16;;;;;;;1.38;0.75;;;19.30;48.30;;;;;;6170027;28;20505;-76
2022/01/29 12:01:31;;;;;;;2.20;0.80;;;19.30;48.40;;;;;;6170490;28;20034;-76
2022/01/29 12:04:54;;;;;;;0.90;0.60;;;19.30;48.30;;;;;;6169614;28;20031;-77
2022/01/29 12:08:06;;;;;;;3.78;0.88;;;19.30;48.40;;;;;;6177749;28;20029;-76
2022/01/29 12:11:13;;;;;;;1.27;0.90;;;19.30;48.40;;;;;;6195007;28;20026;-77
2022/01/29 12:14:13;;;;;;;1.27;0.80;;;19.30;48.40;;;;;;6194490;28;20018;-76
2022/01/29 12:17:42;;;;;;;2.08;0.85;;;19.20;48.30;;;;;;6194183;28;20077;-76
2022/01/29 12:20:43;;;;;;;3.60;1.02;;;19.20;48.30;;;;;;6190362;28;20121;-77
2022/01/29 12:23:48;;;;;;;9.18;1.48;;;19.20;48.20;;;;;;6169030;28;20038;-76
2022/01/29 12:26:56;;;;;;;9.02;1.70;;;19.20;47.90;;;;;;6169851;28;20038;-77
2022/01/29 12:29:56;;;;;;;6.47;1.70;;;19.20;47.70;;;;;;6169757;28;20034;-77
2022/01/29 12:33:11;;;;;;;4.40;1.90;;;19.20;47.40;;;;;;6167280;28;20371;-76
2022/01/29 12:36:12;;;;;;;7.28;2.00;;;19.20;47.20;;;;;;6145494;28;20081;-77
2022/01/29 12:39:21;;;;;;;5.07;1.73;;;19.20;47.40;;;;;;6145522;28;20506;-77
2022/01/29 12:45:24;;;;;;;2.30;1.40;;;19.20;47.50;;;;;;6169276;28;20070;-77
2022/01/29 12:48:24;;;;;;;2.70;1.50;;;19.20;47.80;;;;;;6163124;28;20022;-76
2022/01/29 12:51:25;;;;;;;1.60;1.33;;;19.30;48.00;;;;;;6167243;28;20026;-77
2022/01/29 12:54:28;;;;;;;2.22;1.58;;;19.20;47.90;;;;;;6166292;28;20062;-76
2022/01/29 12:57:49;;;;;;;2.28;1.27;;;19.20;48.00;;;;;;6168385;28;20042;-77
2022/01/29 13:01:01;;;;;;;1.88;1.10;;;19.30;48.10;;;;;;6169528;28;20066;-74
2022/01/29 13:04:04;;;;;;;1.30;0.95;;;19.20;48.10;;;;;;6169300;28;20026;-76
2022/01/29 13:07:07;;;;;;;1.77;1.08;;;19.30;48.20;;;;;;6169332;28;20346;-76
2022/01/29 13:10:09;;;;;;;1.60;1.02;;;19.20;48.20;;;;;;6169370;28;20069;-77
2022/01/29 13:13:10;;;;;;;1.42;0.90;;;19.30;48.20;;;;;;6169519;28;20034;-75
2022/01/29 13:16:10;;;;;;;1.45;1.10;;;19.30;48.20;;;;;;6168258;28;20039;-77
2022/01/29 13:19:11;;;;;;;1.30;0.95;;;19.30;48.30;;;;;;6168645;28;20073;-76
2022/01/29 13:22:13;;;;;;;2.25;1.08;;;19.30;48.30;;;;;;6166622;28;20085;-76
2022/01/29 13:25:15;;;;;;;3.72;1.00;;;19.30;48.30;;;;;;6168122;28;20298;-77
2022/01/29 13:28:17;;;;;;;1.15;0.90;;;19.30;48.30;;;;;;6168577;28;20030;-77
2022/01/29 13:31:17;;;;;;;1.30;1.00;;;19.30;48.30;;;;;;6173313;28;20022;-77
2022/01/29 13:34:33;;;;;;;1.92;1.15;;;19.30;48.40;;;;;;6152174;28;20031;-76
2022/01/29 13:37:35;;;;;;;;;;;19.30;48.40;;;;;;6144053;28;20040;-77
2022/01/29 13:40:44;;;;;;;1.38;1.13;;;19.30;48.40;;;;;;6144939;28;19906;-76
2022/01/29 13:43:44;;;;;;;1.55;1.00;;;19.30;48.40;;;;;;6145602;29;20490;-76
2022/01/29 13:46:45;;;;;;;1.27;0.90;;;19.30;48.50;;;;;;6169083;28;20031;-77
2022/01/29 13:49:46;;;;;;;1.58;0.90;;;19.30;48.50;;;;;;6168760;28;20031;-77
2022/01/29 13:53:20;;;;;;;1.52;1.00;;;19.30;48.40;;;;;;6168197;28;20389;-77
2022/01/29 13:56:22;;;;;;;1.35;0.88;;;19.30;48.40;;;;;;6136209;28;20564;-78
2022/01/29 13:59:22;;;;;;;2.67;0.90;;;19.30;48.30;;;;;;6167986;28;20094;-76
2022/01/29 14:02:22;;;;;;;0.93;0.70;;;19.30;48.40;;;;;;6168567;28;20065;-76
2022/01/29 14:05:26;;;;;;;2.45;1.00;;;19.30;48.40;;;;;;6168235;28;20031;-77
2022/01/29 14:08:28;;;;;;;2.47;0.98;;;19.30;48.40;;;;;;6167023;28;20026;-77
2022/01/29 14:11:57;;;;;;;1.75;0.95;;;19.30;48.40;;;;;;6168409;28;20027;-78
2022/01/29 14:14:59;;;;;;;2.00;0.80;;;19.30;48.40;;;;;;6168012;28;20027;-77
2022/01/29 14:17:59;;;;;;;1.45;1.02;;;19.30;48.50;;;;;;6167866;28;20460;-76
2022/01/29 14:21:00;;;;;;;0.70;0.65;;;19.30;48.50;;;;;;6168019;28;20033;-77
2022/01/29 14:24:00;;;;;;;1.77;0.90;;;19.30;48.50;;;;;;6156664;28;20446;-76
2022/01/29 14:27:01;;;;;;;3.30;0.82;;;19.30;48.50;;;;;;6147196;28;20027;-78
2022/01/29 14:30:04;;;;;;;4.10;0.95;;;19.30;48.50;;;;;;6148913;28;20082;-77
2022/01/29 14:33:05;;;;;;;3.42;1.10;;;19.30;49.20;;;;;;6161464;28;20371;-78
2022/01/29 14:36:05;;;;;;;1.30;0.80;;;19.30;48.60;;;;;;6147963;28;21821;-77
2022/01/29 14:39:06;;;;;;;1.85;1.02;;;19.30;48.60;;;;;;6171075;28;20041;-77
2022/01/29 14:42:08;;;;;;;1.17;0.80;;;19.30;48.60;;;;;;6172259;28;20038;-77
2022/01/29 14:45:11;;;;;;;2.35;1.00;;;19.30;48.60;;;;;;6172540;28;20061;-77
2022/01/29 14:48:11;;;;;;;1.23;0.70;;;19.40;48.50;;;;;;6172241;28;20034;-76
2022/01/29 14:51:13;;;;;;;2.60;0.80;;;19.40;48.30;;;;;;6171740;28;20632;-77
2022/01/29 14:54:14;;;;;;;1.17;0.80;;;19.40;48.20;;;;;;6173546;28;20158;-74
2022/01/29 14:57:15;;;;;;;1.02;0.80;;;19.40;48.00;;;;;;6173461;28;20490;-74
2022/01/29 15:00:16;;;;;;;1.40;0.90;;;19.40;48.10;;;;;;6174072;28;20034;-74
2022/01/29 15:03:16;;;;;;;1.20;0.80;;;19.40;48.10;;;;;;6172245;28;20035;-74
2022/01/29 15:06:17;;;;;;;2.10;0.75;;;19.40;48.10;;;;;;6172136;28;20482;-76
2022/01/29 15:09:19;;;;;;;4.00;0.80;;;19.40;48.20;;;;;;6171429;28;20022;-75
2022/01/29 15:12:20;;;;;;;2.42;0.80;;;19.40;48.30;;;;;;6171949;28;20027;-78
2022/01/29 15:15:21;;;;;;;1.15;0.85;;;19.40;48.30;;;;;;6167907;28;20046;-77
2022/01/29 15:18:21;;;;;;;1.88;0.60;;;19.40;49.10;;;;;;6169602;28;20049;-77
2022/01/29 15:21:23;;;;;;;3.67;0.80;;;19.40;48.40;;;;;;6171313;28;20038;-76
2022/01/29 15:24:23;;;;;;;1.58;0.82;;;19.40;48.50;;;;;;6171314;28;20035;-75
2022/01/29 15:27:24;;;;;;;1.35;0.75;;;19.40;48.50;;;;;;6171103;28;20490;-77
2022/01/29 15:30:24;;;;;;;0.63;0.60;;;19.30;48.40;;;;;;6171029;28;20027;-76
2022/01/29 15:33:26;;;;;;;0.82;0.70;;;19.40;48.50;;;;;;6157452;28;20112;-76
2022/01/29 15:36:27;;;;;;;1.33;0.60;;;19.40;48.60;;;;;;6146995;28;20126;-76
2022/01/29 15:39:29;;;;;;;0.70;0.70;;;19.30;48.50;;;;;;6145884;28;20027;-76
2022/01/29 15:42:31;;;;;;;1.27;0.85;;;19.30;48.50;;;;;;6147185;28;20031;-75
2022/01/29 15:45:36;;;;;;;0.70;0.60;;;19.30;48.50;;;;;;6146914;29;20030;-76
2022/01/29 15:48:37;;;;;;;;;;;19.40;48.60;;;;;;6146820;29;20031;-77
2022/01/29 15:51:37;;;;;;;0.77;0.63;;;19.40;48.60;;;;;;6146781;28;19911;-77
2022/01/29 15:54:38;;;;;;;3.63;0.80;;;19.40;48.70;;;;;;6146757;29;20518;-77
2022/01/29 15:57:40;;;;;;;3.13;0.80;;;19.30;48.60;;;;;;6146621;29;20126;-76
2022/01/29 16:00:41;;;;;;;1.40;0.82;;;19.30;48.60;;;;;;6146704;29;20062;-77
2022/01/29 16:03:41;;;;;;;0.90;0.80;;;19.40;48.70;;;;;;6146621;29;20059;-77
2022/01/29 16:06:41;;;;;;;4.95;0.60;;;19.30;48.60;;;;;;6145826;29;20410;-77
2022/01/29 16:09:43;;;;;;;0.60;0.57;;;19.30;48.70;;;;;;6146860;29;20035;-77
2022/01/29 16:12:44;;;;;;;1.25;0.60;;;19.40;48.80;;;;;;6144376;29;20050;-77